Decoded Metar for KMLS (MILES CITY in MT, USA) (IATA:MLS) | Meteo·Mobile Aviation Weather
aviador You're here:

KMLS Decoded Metar

MILES CITY in MT, USA
Report Time2019-03-23 19:53:00
UTC Time2019-03-23 20:53:03
Flight Rules vfr VFR
Wind230° at 05 kt
W.Decomp.*RWY 22: 5.0 kt HW 0.2 kt LCW
RWY 30: 0.7 kt HW 5 kt LCW
W.Rank230° ranks 28
Current wind is below 230° avg. (7.1)
Visibility9999 m
Phenomena:N/A
Clouds:N/A
Expected CloudBase > 3,200 ft AGL from Temp-Dew spread
CeilingNone
Temp12°C (ISA +2)
Dew Point04°C (58% RH)
AAT8.9°C
QNH1012 hPa
Density Alt3,041 ft
Elevation2,628 ft
Report Wrong Elevation
Raw Report
KMLS 231953Z AUTO 23005KT 10SM CLR 12/04 A2989 RMK AO2 SLP129
T01220044 /=

Extra information for KMLS:More info

Metar Taf Metar & Taf Last 4 Metars F.Rules Stats Wind Profile Meteogram Temp Stats Airport Information Weather charts Add Link Nearby VenuesMetar ALERT Operation Metar Decoded Social comments

AIRNAV info for KMLS